Аэропорт: Шереметьево. Москва

ICAO: UUEE

METAR:
2024-04-22 23:00:00
UUEE 222300Z 23007MPS 9999 BKN025 07/02 Q1017 R24C/CLRD62 NOSIG
TAF:
2024-04-22 19:53:00
TAF UUEE 221953Z 2221/2321 22007MPS 9999 BKN020 TX12/2312Z TN05/2302Z 
  TEMPO 2309/2316 26008G14MPS 
  BECMG 2318/2320 VRB01MPS